Histria Agata — 9HSB8 — position and weather

sailwx.info

Track history (hours):
 
Tides and Currents Weather Stations Pressure Air Temp Water Temp Dewpoint Dewpoint Depression Visibility Wind Speed Wind Dir Waves Ship Positions

Histria Agata

Last reported at 2017-Oct-15 01:30 UTC. Time now 2017-Oct-19 16:51 UTC.
Position N 36°27' E 014°52'.

Length 180 m; draft 8.7 m.

Type: Ship (hazmat cat C). MMSI: 256359000.

Date/timePositionNaut miles runAvg speedWind from/ knotsBaromVisibWave heightAir tempDewpointWater temp
2017-Oct-15 01:30N 36°27' E 014°52'712.9
2017-Oct-15 00:59N 36°28' E 014°44'713.1
2017-Oct-15 00:27N 36°29' E 014°35'613.2
2017-Oct-15 00:01N 36°31' E 014°28'913.5
2017-Oct-14 23:20N 36°37' E 014°19'413.4
2017-Oct-14 23:00N 36°39' E 014°14'713.5
2017-Oct-14 22:30N 36°43' E 014°07'713.3
2017-Oct-14 22:00N 36°46' E 014°00'713.2
2017-Oct-14 21:30N 36°50' E 013°53'713.1
2017-Oct-14 21:00N 36°53' E 013°46'25612.4
2017-Oct-14 00:22N 38°39' E 008°52'512.0
2017-Oct-13 23:55N 38°41' E 008°46'512.0
2017-Oct-13 23:29N 38°43' E 008°39'26912.9
2017-Oct-13 02:40N 40°46' E 003°29'66 1.3
2017-Oct-10 23:53N 41°19' E 002°12'0 0.0
2017-Oct-10 02:16N 41°19' E 002°12'0 0.0
2017-Oct-09 08:04N 41°19' E 002°12'0 0.1
2017-Oct-09 07:52N 41°19' E 002°12'0 0.0
2017-Oct-07 16:13N 41°19' E 002°12'10 8.4
2017-Oct-07 14:59N 41°09' E 002°07'612.5
2017-Oct-07 14:30N 41°04' E 002°03'22811.9
2017-Oct-06 19:27N 37°45' W 000°21'613.2
2017-Oct-06 19:00N 37°40' W 000°25'713.4
2017-Oct-06 18:30N 37°35' W 000°30'713.3
2017-Oct-06 18:00N 37°30' W 000°36'713.4
2017-Oct-06 17:30N 37°25' W 000°42'713.2
2017-Oct-06 17:00N 37°21' W 000°48'22412.9
2017-Oct-05 23:38N 36°01' W 005°09'214.6
2017-Oct-05 23:29N 36°01' W 005°11'714.6
2017-Oct-05 23:00N 35°59' W 005°20'714.1
2017-Oct-05 22:30N 35°57' W 005°28'2911.7
2017-Oct-05 20:04N 35°53' W 006°03'8812.1
2017-Oct-05 12:45N 34°59' W 007°28'412.3
2017-Oct-05 12:23N 34°56' W 007°32'512.3
2017-Oct-05 12:00N 34°53' W 007°37'612.2
2017-Oct-05 11:30N 34°48' W 007°42'611.9
2017-Oct-05 11:00N 34°44' W 007°48'  
Track history (hours):
 
Tides and Currents Weather Stations Pressure Air Temp Water Temp Dewpoint Dewpoint Depression Visibility Wind Speed Wind Dir Waves Ship Positions

Histria Agata

Last reported at 2017-Oct-15 01:30 UTC. Time now 2017-Oct-19 16:51 UTC.
Position N 36°27' E 014°52'.

Length 180 m; draft 8.7 m.

Type: Ship (hazmat cat C). MMSI: 256359000.

Date/timePositionNaut miles runAvg speedWind from/ knotsBaromVisibWave heightAir tempDewpointWater temp
2017-Oct-15 01:30N 36°27' E 014°52'712.9
2017-Oct-15 00:59N 36°28' E 014°44'713.1
2017-Oct-15 00:27N 36°29' E 014°35'613.2
2017-Oct-15 00:01N 36°31' E 014°28'913.5
2017-Oct-14 23:20N 36°37' E 014°19'413.4
2017-Oct-14 23:00N 36°39' E 014°14'713.5
2017-Oct-14 22:30N 36°43' E 014°07'713.3
2017-Oct-14 22:00N 36°46' E 014°00'713.2
2017-Oct-14 21:30N 36°50' E 013°53'713.1
2017-Oct-14 21:00N 36°53' E 013°46'25612.4
2017-Oct-14 00:22N 38°39' E 008°52'512.0
2017-Oct-13 23:55N 38°41' E 008°46'512.0
2017-Oct-13 23:29N 38°43' E 008°39'26912.9
2017-Oct-13 02:40N 40°46' E 003°29'66 1.3
2017-Oct-10 23:53N 41°19' E 002°12'0 0.0
2017-Oct-10 02:16N 41°19' E 002°12'0 0.0
2017-Oct-09 08:04N 41°19' E 002°12'0 0.1
2017-Oct-09 07:52N 41°19' E 002°12'0 0.0
2017-Oct-07 16:13N 41°19' E 002°12'10 8.4
2017-Oct-07 14:59N 41°09' E 002°07'612.5
2017-Oct-07 14:30N 41°04' E 002°03'22811.9
2017-Oct-06 19:27N 37°45' W 000°21'613.2
2017-Oct-06 19:00N 37°40' W 000°25'713.4
2017-Oct-06 18:30N 37°35' W 000°30'713.3
2017-Oct-06 18:00N 37°30' W 000°36'713.4
2017-Oct-06 17:30N 37°25' W 000°42'713.2
2017-Oct-06 17:00N 37°21' W 000°48'22412.9
2017-Oct-05 23:38N 36°01' W 005°09'214.6
2017-Oct-05 23:29N 36°01' W 005°11'714.6
2017-Oct-05 23:00N 35°59' W 005°20'714.1
2017-Oct-05 22:30N 35°57' W 005°28'2911.7
2017-Oct-05 20:04N 35°53' W 006°03'8812.1
2017-Oct-05 12:45N 34°59' W 007°28'412.3
2017-Oct-05 12:23N 34°56' W 007°32'512.3
2017-Oct-05 12:00N 34°53' W 007°37'612.2
2017-Oct-05 11:30N 34°48' W 007°42'611.9
2017-Oct-05 11:00N 34°44' W 007°48'  

Dump ship's entire track history